createdAt,value
2017-01-08T00:02:25.317Z,0
2017-01-08T00:03:07.092Z,0
2017-01-08T00:03:48.854Z,0
2017-01-08T00:04:30.618Z,0
2017-01-08T00:05:12.067Z,0
2017-01-08T00:07:12.147Z,0
2017-01-08T00:07:53.969Z,0
2017-01-08T00:08:35.464Z,0
2017-01-08T00:09:17.253Z,0
2017-01-08T00:09:58.820Z,0
2017-01-08T00:10:40.313Z,0
2017-01-08T00:13:16.836Z,0
2017-01-08T00:13:58.595Z,0
2017-01-08T00:14:40.416Z,0
2017-01-08T00:15:22.200Z,0
2017-01-08T00:16:04.048Z,0
2017-01-08T00:16:45.792Z,0
2017-01-08T00:18:45.269Z,0
2017-01-08T00:19:26.798Z,0
2017-01-08T00:20:08.180Z,0
2017-01-08T00:20:49.927Z,0
2017-01-08T00:21:31.571Z,0
2017-01-08T00:22:13.375Z,0
2017-01-08T00:24:44.226Z,0
2017-01-08T00:25:26.006Z,0
2017-01-08T00:26:07.933Z,0
2017-01-08T00:28:23.005Z,0
2017-01-08T00:29:04.803Z,0
2017-01-08T00:29:46.623Z,0
2017-01-08T00:30:28.431Z,0
2017-01-08T00:31:10.105Z,0
2017-01-08T00:31:51.911Z,0
2017-01-08T00:33:52.092Z,0
2017-01-08T00:36:12.890Z,0
2017-01-08T00:36:54.675Z,0
2017-01-08T00:37:36.031Z,0
2017-01-08T00:39:35.815Z,0
2017-01-08T00:40:17.564Z,0
2017-01-08T00:40:59.253Z,0
2017-01-08T00:41:40.906Z,0
2017-01-08T00:42:22.592Z,0
2017-01-08T00:46:32.486Z,0
2017-01-08T00:47:14.122Z,0
2017-01-08T00:47:55.732Z,0
2017-01-08T00:48:37.476Z,0
2017-01-08T00:49:18.726Z,0
2017-01-08T00:50:00.100Z,0
2017-01-08T00:50:41.668Z,0
2017-01-08T00:51:23.300Z,0
2017-01-08T00:52:04.809Z,0
2017-01-08T00:52:46.682Z,0
2017-01-08T00:53:28.543Z,0
2017-01-08T00:54:10.345Z,0
2017-01-08T00:54:52.178Z,0
2017-01-08T00:55:33.985Z,0
2017-01-08T00:56:15.887Z,0
2017-01-08T00:56:57.698Z,0
2017-01-08T00:57:39.518Z,0
2017-01-08T01:00:00.159Z,0
2017-01-08T01:02:15.461Z,0
2017-01-08T01:02:57.019Z,0
2017-01-08T01:05:12.510Z,0
2017-01-08T01:05:54.053Z,0
2017-01-08T01:06:35.645Z,0
2017-01-08T01:10:50.978Z,0
2017-01-08T01:11:32.853Z,0
2017-01-08T01:12:14.535Z,0
2017-01-08T01:12:56.330Z,0
2017-01-08T01:18:55.707Z,0
2017-01-08T01:21:16.530Z,0
2017-01-08T01:21:58.045Z,0
2017-01-08T01:22:39.920Z,0
2017-01-08T01:23:21.603Z,0
2017-01-08T01:25:21.564Z,0
2017-01-08T01:26:03.352Z,0
2017-01-08T01:26:45.198Z,0
2017-01-08T01:27:26.827Z,0
2017-01-08T01:33:26.410Z,0
2017-01-08T01:34:07.866Z,0
2017-01-08T01:34:49.559Z,0
2017-01-08T01:35:31.335Z,0
2017-01-08T01:36:13.192Z,0
2017-01-08T01:36:54.563Z,0
2017-01-08T01:37:35.916Z,0
2017-01-08T01:38:17.300Z,0
2017-01-08T01:38:58.687Z,0
2017-01-08T01:41:19.287Z,0
2017-01-08T01:42:01.149Z,0
2017-01-08T01:42:42.973Z,0
2017-01-08T01:43:24.758Z,0
2017-01-08T01:45:55.793Z,0
2017-01-08T01:46:37.550Z,0
2017-01-08T01:47:18.978Z,0
2017-01-08T01:49:50.053Z,0
2017-01-08T01:50:31.703Z,0
2017-01-08T01:51:13.478Z,0
2017-01-08T01:53:44.473Z,0
2017-01-08T01:54:26.271Z,0
2017-01-08T01:55:07.718Z,0
2017-01-08T01:55:49.543Z,0
2017-01-08T01:56:31.352Z,0
2017-01-08T01:57:12.802Z,0
2017-01-08T01:57:54.499Z,0
2017-01-08T01:58:36.276Z,0
2017-01-08T01:59:18.188Z,0
2017-01-08T02:00:00.006Z,0
2017-01-08T02:00:41.667Z,0
2017-01-08T02:01:23.195Z,0
2017-01-08T02:05:42.572Z,0
2017-01-08T02:06:23.096Z,0
2017-01-08T02:07:03.625Z,0
2017-01-08T02:07:44.157Z,0
2017-01-08T02:08:24.674Z,0
2017-01-08T02:09:05.192Z,0
2017-01-08T02:09:45.726Z,0
2017-01-08T02:10:26.254Z,0
2017-01-08T02:11:06.764Z,0
2017-01-08T02:11:47.290Z,0
2017-01-08T02:12:27.828Z,0
2017-01-08T02:13:08.350Z,0
2017-01-08T02:13:48.881Z,0
2017-01-08T02:14:29.422Z,0
2017-01-08T02:15:09.938Z,0
2017-01-08T02:15:50.469Z,0
2017-01-08T02:16:31.007Z,0
2017-01-08T02:17:11.508Z,0
2017-01-08T02:17:52.029Z,0
2017-01-08T02:18:32.563Z,0
2017-01-08T02:19:13.096Z,0
2017-01-08T02:19:53.602Z,0
2017-01-08T02:20:34.132Z,0
2017-01-08T02:21:14.662Z,0
2017-01-08T02:21:55.194Z,0
2017-01-08T02:22:35.713Z,0
2017-01-08T02:23:16.236Z,0
2017-01-08T02:23:56.761Z,0
2017-01-08T02:24:37.285Z,0
2017-01-08T02:25:17.815Z,0
2017-01-08T02:25:58.346Z,0
2017-01-08T02:26:38.884Z,0
2017-01-08T02:27:19.401Z,0
2017-01-08T02:27:59.932Z,0
2017-01-08T02:28:40.449Z,0
2017-01-08T02:29:20.985Z,0
2017-01-08T02:30:01.517Z,0
2017-01-08T02:30:42.056Z,0
2017-01-08T02:31:22.573Z,0
2017-01-08T02:32:03.091Z,0
2017-01-08T02:32:43.624Z,0
2017-01-08T02:33:24.143Z,0
2017-01-08T02:34:04.673Z,0
2017-01-08T02:34:45.204Z,0
2017-01-08T02:35:25.737Z,0
2017-01-08T02:36:06.254Z,0
2017-01-08T02:36:46.790Z,0
2017-01-08T02:37:27.303Z,0
2017-01-08T02:38:07.838Z,0
2017-01-08T02:38:48.360Z,0
2017-01-08T02:39:28.892Z,0
2017-01-08T02:40:09.415Z,0
2017-01-08T02:40:49.943Z,0
2017-01-08T02:41:30.482Z,0
2017-01-08T02:42:11.000Z,0
2017-01-08T02:42:51.526Z,0
2017-01-08T02:43:32.063Z,0
2017-01-08T02:44:12.590Z,0
2017-01-08T02:44:53.122Z,0
2017-01-08T02:45:33.648Z,0
2017-01-08T02:46:14.179Z,0
2017-01-08T02:46:54.692Z,0
2017-01-08T02:47:35.213Z,0
2017-01-08T02:48:15.739Z,0
2017-01-08T02:48:56.264Z,0
2017-01-08T02:49:36.792Z,0
2017-01-08T02:50:17.330Z,0
2017-01-08T02:50:57.859Z,0
2017-01-08T02:51:38.403Z,0
2017-01-08T02:52:18.918Z,0
2017-01-08T02:52:59.440Z,0
2017-01-08T02:53:39.976Z,0
2017-01-08T02:54:20.498Z,0
2017-01-08T02:55:01.028Z,0
2017-01-08T02:55:41.534Z,0
2017-01-08T02:56:22.075Z,0
2017-01-08T02:57:02.577Z,0
2017-01-08T02:57:43.087Z,0
2017-01-08T02:58:23.571Z,0
2017-01-08T02:59:04.072Z,0
2017-01-08T02:59:44.550Z,0
2017-01-08T03:00:25.051Z,0
2017-01-08T03:01:05.603Z,0
2017-01-08T03:01:46.130Z,0
2017-01-08T03:02:26.671Z,0
2017-01-08T03:03:07.205Z,0
2017-01-08T03:03:47.751Z,0
2017-01-08T03:04:28.271Z,0
2017-01-08T03:05:08.814Z,0
2017-01-08T03:05:49.324Z,0
2017-01-08T03:06:29.857Z,0
2017-01-08T03:07:10.387Z,0
2017-01-08T03:07:50.919Z,0
2017-01-08T03:08:31.410Z,0
2017-01-08T03:09:11.872Z,0
2017-01-08T03:09:52.367Z,0
2017-01-08T03:10:32.865Z,0
2017-01-08T03:11:13.358Z,0
2017-01-08T03:11:53.880Z,0
2017-01-08T03:12:34.392Z,0
2017-01-08T03:13:14.909Z,0
2017-01-08T03:13:55.420Z,0
2017-01-08T03:14:35.922Z,0
2017-01-08T03:15:16.439Z,0
2017-01-08T03:15:56.904Z,0
2017-01-08T03:16:37.419Z,0
2017-01-08T03:17:17.947Z,0
2017-01-08T03:17:58.477Z,0
2017-01-08T03:18:39.002Z,0
2017-01-08T03:19:19.444Z,0
2017-01-08T03:19:59.933Z,0
2017-01-08T03:20:40.427Z,0
2017-01-08T03:21:20.906Z,0
2017-01-08T03:22:01.405Z,0
2017-01-08T03:22:41.867Z,0
2017-01-08T03:23:22.336Z,0
2017-01-08T03:24:02.867Z,0
2017-01-08T03:24:43.307Z,0
2017-01-08T03:25:23.840Z,0
2017-01-08T03:26:04.283Z,0
2017-01-08T03:26:44.775Z,0
2017-01-08T03:27:25.262Z,0
2017-01-08T03:28:05.748Z,0
2017-01-08T03:28:46.269Z,0
2017-01-08T03:29:26.794Z,0
2017-01-08T03:30:07.334Z,0
2017-01-08T03:30:47.829Z,0
2017-01-08T03:31:28.502Z,0
2017-01-08T03:32:09.010Z,0
2017-01-08T03:32:49.467Z,0
2017-01-08T03:33:29.988Z,0
2017-01-08T03:34:10.448Z,0
2017-01-08T03:34:50.960Z,0
2017-01-08T03:35:31.445Z,0
2017-01-08T03:36:11.929Z,0
2017-01-08T03:36:52.425Z,0
2017-01-08T03:37:32.894Z,0
2017-01-08T03:38:13.369Z,0
2017-01-08T03:38:53.844Z,0
2017-01-08T03:39:34.338Z,0
2017-01-08T03:40:14.825Z,0
2017-01-08T03:40:55.301Z,0
2017-01-08T03:41:35.787Z,0
2017-01-08T03:42:16.292Z,0
2017-01-08T03:42:56.783Z,0
2017-01-08T03:43:37.247Z,0
2017-01-08T03:44:17.749Z,0
2017-01-08T03:44:58.288Z,0
2017-01-08T03:45:38.743Z,0
2017-01-08T03:46:19.235Z,0
2017-01-08T03:46:59.711Z,0
2017-01-08T03:47:40.194Z,0
2017-01-08T03:48:20.664Z,0
2017-01-08T03:49:01.142Z,0
2017-01-08T03:49:41.648Z,0
2017-01-08T03:50:22.142Z,0
2017-01-08T03:51:02.607Z,0
2017-01-08T03:51:43.093Z,0
2017-01-08T03:52:23.619Z,0
2017-01-08T03:53:04.157Z,0
2017-01-08T03:53:44.686Z,0
2017-01-08T03:54:25.254Z,0
2017-01-08T03:55:05.783Z,0
2017-01-08T03:55:46.306Z,0
2017-01-08T03:56:26.830Z,0
2017-01-08T03:57:07.372Z,0
2017-01-08T03:57:47.885Z,0
2017-01-08T03:58:28.364Z,0
2017-01-08T03:59:08.867Z,0
2017-01-08T03:59:49.335Z,0
2017-01-08T04:00:29.862Z,0
2017-01-08T04:01:10.342Z,0
2017-01-08T04:01:50.908Z,0
2017-01-08T04:02:31.394Z,0
2017-01-08T04:03:11.912Z,0
2017-01-08T04:03:52.433Z,0
2017-01-08T04:04:32.976Z,0
2017-01-08T04:05:13.450Z,0
2017-01-08T04:05:53.937Z,0
2017-01-08T04:06:34.451Z,0
2017-01-08T04:07:14.924Z,0
2017-01-08T04:07:55.460Z,0
2017-01-08T04:08:35.980Z,0
2017-01-08T04:09:16.497Z,0
2017-01-08T04:09:57.006Z,0
2017-01-08T04:10:37.537Z,0
2017-01-08T04:11:18.046Z,0
2017-01-08T04:11:58.575Z,0
2017-01-08T04:12:39.110Z,0
2017-01-08T04:13:19.631Z,0
2017-01-08T04:14:00.173Z,0
2017-01-08T04:14:40.700Z,0
2017-01-08T04:15:21.226Z,0
2017-01-08T04:16:01.769Z,0
2017-01-08T04:16:42.309Z,0
2017-01-08T04:17:22.831Z,0
2017-01-08T04:18:03.306Z,0
2017-01-08T04:18:43.816Z,0
2017-01-08T04:19:24.324Z,0
2017-01-08T04:20:04.845Z,0
2017-01-08T04:20:45.357Z,0
2017-01-08T04:21:25.862Z,0
2017-01-08T04:22:06.381Z,0
2017-01-08T04:22:46.890Z,0
2017-01-08T04:23:27.382Z,0
2017-01-08T04:24:07.934Z,0
2017-01-08T04:24:48.451Z,0
2017-01-08T04:25:28.945Z,0
2017-01-08T04:26:09.451Z,0
2017-01-08T04:26:49.970Z,0
2017-01-08T04:27:30.482Z,0
2017-01-08T04:28:10.984Z,0
2017-01-08T04:28:51.516Z,0
2017-01-08T04:29:32.001Z,0
2017-01-08T04:30:12.521Z,0
2017-01-08T04:30:53.040Z,0
2017-01-08T04:31:33.552Z,0
2017-01-08T04:32:14.072Z,0
2017-01-08T04:32:54.614Z,0
2017-01-08T04:33:35.143Z,0
2017-01-08T04:34:15.664Z,0
2017-01-08T04:34:56.155Z,0
2017-01-08T04:35:36.661Z,0
2017-01-08T04:36:17.180Z,0
2017-01-08T04:36:57.718Z,0
2017-01-08T04:37:38.229Z,0
2017-01-08T04:38:18.742Z,0
2017-01-08T04:38:59.268Z,0
2017-01-08T04:39:39.798Z,0
2017-01-08T04:40:20.329Z,0
2017-01-08T04:41:00.855Z,0
2017-01-08T04:41:41.391Z,0
2017-01-08T04:42:21.917Z,0
2017-01-08T04:43:02.444Z,0
2017-01-08T04:43:42.970Z,0
2017-01-08T04:44:23.529Z,0
2017-01-08T04:45:04.032Z,0
2017-01-08T04:45:44.568Z,0
2017-01-08T04:46:25.119Z,0
2017-01-08T04:47:05.670Z,0
2017-01-08T04:47:46.196Z,0
2017-01-08T04:48:26.763Z,0
2017-01-08T04:49:07.299Z,0
2017-01-08T04:49:47.850Z,0
2017-01-08T04:50:28.345Z,0
2017-01-08T04:51:08.866Z,0
2017-01-08T04:51:49.390Z,0
2017-01-08T04:52:29.913Z,0
2017-01-08T04:53:10.436Z,0
2017-01-08T04:53:50.947Z,0
2017-01-08T04:54:31.465Z,0
2017-01-08T04:55:11.984Z,0
2017-01-08T04:55:52.494Z,0
2017-01-08T04:56:33.047Z,0
2017-01-08T04:57:13.544Z,0
2017-01-08T04:57:54.085Z,0
2017-01-08T04:58:34.618Z,0
2017-01-08T04:59:15.122Z,0
2017-01-08T04:59:55.713Z,0
2017-01-08T05:00:36.200Z,0
2017-01-08T05:01:16.733Z,0
2017-01-08T05:01:57.272Z,0
2017-01-08T05:02:37.815Z,0
2017-01-08T05:03:18.354Z,0
2017-01-08T05:03:58.919Z,0
2017-01-08T05:04:39.459Z,0
2017-01-08T05:05:19.991Z,0
2017-01-08T05:06:00.515Z,0
2017-01-08T05:06:41.039Z,0
2017-01-08T05:07:21.540Z,0
2017-01-08T05:08:02.089Z,0
2017-01-08T05:08:42.540Z,0
2017-01-08T05:09:23.078Z,0
2017-01-08T05:10:03.564Z,0
2017-01-08T05:10:44.082Z,0
2017-01-08T05:11:24.603Z,0
2017-01-08T05:12:05.101Z,0
2017-01-08T05:12:45.576Z,0
2017-01-08T05:13:26.064Z,0
2017-01-08T05:14:06.633Z,0
2017-01-08T05:14:47.153Z,0
2017-01-08T05:15:27.587Z,0
2017-01-08T05:16:08.146Z,0
2017-01-08T05:16:48.655Z,0
2017-01-08T05:17:29.108Z,0
2017-01-08T05:18:09.634Z,0
2017-01-08T05:18:50.167Z,0
2017-01-08T05:19:30.678Z,0
2017-01-08T05:20:11.204Z,0
2017-01-08T05:20:51.758Z,0
2017-01-08T05:21:32.246Z,0
2017-01-08T05:22:12.773Z,0
2017-01-08T05:22:53.300Z,0
2017-01-08T05:23:33.858Z,0
2017-01-08T05:24:14.336Z,0
2017-01-08T05:24:54.903Z,0
2017-01-08T05:25:35.413Z,0
2017-01-08T05:26:15.987Z,0
2017-01-08T05:26:56.460Z,0
2017-01-08T05:27:37.022Z,0
2017-01-08T05:28:17.551Z,0
2017-01-08T05:28:58.064Z,0
2017-01-08T05:29:38.605Z,0
2017-01-08T05:30:19.102Z,0
2017-01-08T05:30:59.614Z,0
2017-01-08T05:31:40.165Z,0
2017-01-08T05:32:20.729Z,0
2017-01-08T05:33:01.241Z,0
2017-01-08T05:33:41.834Z,0
2017-01-08T05:34:22.265Z,0
2017-01-08T05:35:02.772Z,0
2017-01-08T05:35:43.352Z,0
2017-01-08T05:36:23.854Z,0
2017-01-08T05:37:04.408Z,0
2017-01-08T05:37:44.977Z,0
2017-01-08T05:38:25.512Z,0
2017-01-08T05:39:06.060Z,0
2017-01-08T05:39:46.532Z,0
2017-01-08T05:40:27.044Z,0
2017-01-08T05:41:07.810Z,0
2017-01-08T05:41:48.394Z,0
2017-01-08T05:42:28.859Z,0
2017-01-08T05:43:09.371Z,0
2017-01-08T05:43:49.829Z,0
2017-01-08T05:44:30.354Z,0
2017-01-08T05:45:10.871Z,0
2017-01-08T05:45:51.365Z,0
2017-01-08T05:46:31.855Z,0
2017-01-08T05:47:12.396Z,0
2017-01-08T05:47:52.923Z,0
2017-01-08T05:48:33.453Z,0
2017-01-08T05:49:13.973Z,0
2017-01-08T05:49:54.474Z,0
2017-01-08T05:50:34.973Z,0
2017-01-08T05:51:15.499Z,0
2017-01-08T05:51:56.022Z,0
2017-01-08T05:52:36.457Z,0
2017-01-08T05:53:16.968Z,0
2017-01-08T05:53:57.459Z,0
2017-01-08T05:54:37.972Z,0
2017-01-08T05:55:18.493Z,0
2017-01-08T05:55:59.027Z,0
2017-01-08T05:56:39.559Z,0
2017-01-08T05:57:20.097Z,0
2017-01-08T05:58:00.648Z,0
2017-01-08T05:58:41.152Z,0
2017-01-08T05:59:21.664Z,0
2017-01-08T06:00:02.154Z,0
2017-01-08T06:00:42.645Z,0
2017-01-08T06:01:23.142Z,0
2017-01-08T06:02:03.659Z,0
2017-01-08T06:02:44.167Z,0
2017-01-08T06:03:24.692Z,0
2017-01-08T06:04:05.214Z,0
2017-01-08T06:04:45.761Z,0
2017-01-08T06:05:26.257Z,0
2017-01-08T06:06:06.769Z,0
2017-01-08T06:06:47.298Z,0
2017-01-08T06:07:27.821Z,0
2017-01-08T06:08:08.370Z,0
2017-01-08T06:08:48.869Z,0
2017-01-08T06:09:29.366Z,0
2017-01-08T06:10:09.864Z,0
2017-01-08T06:10:50.396Z,0
2017-01-08T06:11:30.917Z,0
2017-01-08T06:12:11.435Z,0
2017-01-08T06:12:51.949Z,0
2017-01-08T06:13:32.462Z,0
2017-01-08T06:14:12.954Z,0
2017-01-08T06:14:53.469Z,0
2017-01-08T06:15:34.008Z,0
2017-01-08T06:16:14.512Z,0
2017-01-08T06:16:55.011Z,0
2017-01-08T06:17:35.545Z,0
2017-01-08T06:18:16.063Z,0
2017-01-08T06:18:56.609Z,0
2017-01-08T06:19:37.127Z,0
2017-01-08T06:20:17.672Z,0
2017-01-08T06:20:58.194Z,0
2017-01-08T06:21:38.738Z,0
2017-01-08T06:22:19.253Z,0
2017-01-08T06:24:34.926Z,0
2017-01-08T06:25:17.031Z,0
2017-01-08T06:25:57.569Z,0
2017-01-08T06:26:38.056Z,0
2017-01-08T06:27:20.446Z,0
2017-01-08T06:28:00.939Z,0
2017-01-08T06:28:41.464Z,0
2017-01-08T06:29:21.963Z,0
2017-01-08T06:30:02.459Z,0
2017-01-08T06:30:42.992Z,0
2017-01-08T06:31:23.481Z,0
2017-01-08T06:32:03.958Z,0
2017-01-08T06:32:44.441Z,0
2017-01-08T06:33:24.947Z,0
2017-01-08T06:34:05.417Z,0
2017-01-08T06:34:46.054Z,0
2017-01-08T06:35:26.549Z,0
2017-01-08T06:36:07.077Z,0
2017-01-08T06:36:47.592Z,0
2017-01-08T06:37:28.117Z,0
2017-01-08T06:38:08.611Z,0
2017-01-08T06:38:49.660Z,0
2017-01-08T06:39:31.026Z,0
2017-01-08T06:40:11.675Z,0
2017-01-08T06:40:52.221Z,0
2017-01-08T06:41:32.749Z,0
2017-01-08T06:42:13.625Z,0
2017-01-08T06:42:54.031Z,0
2017-01-08T06:43:36.563Z,0
2017-01-08T06:44:17.234Z,0
2017-01-08T06:44:59.063Z,0
2017-01-08T06:45:39.747Z,0
2017-01-08T06:46:20.341Z,0
2017-01-08T06:47:00.966Z,0
2017-01-08T06:47:41.690Z,0
2017-01-08T06:48:23.629Z,0
2017-01-08T06:49:04.047Z,0
2017-01-08T06:49:44.690Z,0
2017-01-08T06:50:25.216Z,0
2017-01-08T06:51:05.710Z,0
2017-01-08T06:51:46.237Z,0
2017-01-08T06:52:26.996Z,0
2017-01-08T06:53:07.386Z,0
2017-01-08T06:55:37.448Z,0
2017-01-08T06:56:21.121Z,0
2017-01-08T06:57:01.577Z,0
2017-01-08T06:57:42.023Z,0
2017-01-08T06:58:28.692Z,0
2017-01-08T06:59:09.289Z,0
2017-01-08T06:59:51.394Z,0
2017-01-08T07:00:32.402Z,0
2017-01-08T07:01:17.302Z,0
2017-01-08T07:02:01.387Z,0
2017-01-08T07:02:49.452Z,0
2017-01-08T07:03:29.999Z,0
2017-01-08T07:04:10.488Z,0
2017-01-08T07:04:51.078Z,4
2017-01-08T07:05:31.524Z,4
2017-01-08T07:06:12.015Z,4
2017-01-08T07:06:52.578Z,4
2017-01-08T07:07:33.989Z,0
2017-01-08T07:08:14.502Z,0
2017-01-08T07:08:54.974Z,4
2017-01-08T07:09:35.466Z,4
2017-01-08T07:10:15.982Z,4
2017-01-08T07:10:56.488Z,4
2017-01-08T07:11:37.030Z,0
2017-01-08T07:12:17.576Z,4
2017-01-08T07:12:58.177Z,4
2017-01-08T07:13:38.672Z,4
2017-01-08T07:14:19.237Z,8
2017-01-08T07:14:59.770Z,4
2017-01-08T07:15:40.354Z,4
2017-01-08T07:16:20.861Z,4
2017-01-08T07:17:01.477Z,4
2017-01-08T07:17:41.937Z,8
2017-01-08T07:18:22.495Z,8
2017-01-08T07:19:03.133Z,8
2017-01-08T07:19:45.058Z,8
2017-01-08T07:20:25.647Z,8
2017-01-08T07:22:53.774Z,12
2017-01-08T07:23:34.305Z,12
2017-01-08T07:24:14.839Z,12
2017-01-08T07:24:55.384Z,16
2017-01-08T07:25:35.897Z,16
2017-01-08T07:26:16.564Z,16
2017-01-08T07:26:57.239Z,16
2017-01-08T07:27:37.982Z,16
2017-01-08T07:28:18.323Z,20
2017-01-08T07:28:58.834Z,20
2017-01-08T07:29:39.394Z,24
2017-01-08T07:30:20.374Z,24
2017-01-08T07:31:00.708Z,28
2017-01-08T07:31:41.091Z,24
2017-01-08T07:32:21.694Z,28
2017-01-08T07:33:02.217Z,28
2017-01-08T07:33:42.673Z,32
2017-01-08T07:34:23.207Z,36
2017-01-08T07:35:03.730Z,36
2017-01-08T07:35:44.274Z,40
2017-01-08T07:36:24.828Z,44
2017-01-08T07:37:05.300Z,52
2017-01-08T07:37:45.879Z,56
2017-01-08T07:38:26.387Z,60
2017-01-08T07:39:06.904Z,56
2017-01-08T07:39:47.570Z,60
2017-01-08T07:40:28.071Z,56
2017-01-08T07:41:08.861Z,56
2017-01-08T07:41:49.307Z,52
2017-01-08T07:42:29.839Z,52
2017-01-08T07:43:10.432Z,52
2017-01-08T07:43:51.020Z,52
2017-01-08T07:44:31.530Z,56
2017-01-08T07:45:12.066Z,56
2017-01-08T07:45:52.635Z,56
2017-01-08T07:46:33.974Z,56
2017-01-08T07:47:15.399Z,60
2017-01-08T07:47:56.650Z,64
2017-01-08T07:48:42.980Z,64
2017-01-08T07:49:24.672Z,64
2017-01-08T07:50:05.146Z,64
2017-01-08T07:50:45.790Z,68
2017-01-08T07:51:26.926Z,68
2017-01-08T07:52:07.815Z,72
2017-01-08T07:52:48.342Z,76
2017-01-08T07:53:28.882Z,72
2017-01-08T07:54:09.419Z,76
2017-01-08T07:54:50.806Z,76
2017-01-08T07:55:31.302Z,76
2017-01-08T07:56:11.858Z,76
2017-01-08T07:56:53.116Z,76
2017-01-08T07:57:34.050Z,80
2017-01-08T07:58:14.931Z,88
2017-01-08T07:58:55.661Z,88
2017-01-08T07:59:36.403Z,84
2017-01-08T08:00:17.022Z,88
2017-01-08T08:00:57.817Z,88
2017-01-08T08:01:38.541Z,92
2017-01-08T08:02:19.038Z,92
2017-01-08T08:02:59.586Z,96
2017-01-08T08:03:40.150Z,104
2017-01-08T08:04:20.803Z,108
2017-01-08T08:05:01.530Z,112
2017-01-08T08:05:42.245Z,112
2017-01-08T08:06:22.735Z,112
2017-01-08T08:07:03.350Z,116
2017-01-08T08:07:43.973Z,116
2017-01-08T08:08:26.076Z,116
2017-01-08T08:09:07.216Z,116
2017-01-08T08:09:51.411Z,120
2017-01-08T08:10:32.607Z,120
2017-01-08T08:11:13.068Z,120
2017-01-08T08:11:53.571Z,116
2017-01-08T08:12:34.136Z,124
2017-01-08T08:13:14.642Z,128
2017-01-08T08:13:55.261Z,132
2017-01-08T08:14:35.906Z,132
2017-01-08T08:15:16.425Z,132
2017-01-08T08:15:56.960Z,136
2017-01-08T08:16:37.410Z,148
2017-01-08T08:17:17.952Z,168
2017-01-08T08:17:58.627Z,184
2017-01-08T08:18:39.146Z,196
2017-01-08T08:19:19.750Z,204
2017-01-08T08:20:01.049Z,216
2017-01-08T08:20:41.565Z,224
2017-01-08T08:21:22.093Z,236
2017-01-08T08:22:02.719Z,244
2017-01-08T08:22:43.504Z,248
2017-01-08T08:23:24.842Z,248
2017-01-08T08:24:05.983Z,236
2017-01-08T08:24:46.509Z,220
2017-01-08T08:25:27.142Z,208
2017-01-08T08:26:07.640Z,212
2017-01-08T08:26:48.159Z,212
2017-01-08T08:27:28.710Z,196
2017-01-08T08:28:09.223Z,176
2017-01-08T08:28:49.801Z,176
2017-01-08T08:29:30.371Z,184
2017-01-08T08:30:13.428Z,200
2017-01-08T08:30:58.144Z,200
2017-01-08T08:31:39.205Z,208
2017-01-08T08:32:20.041Z,216
2017-01-08T08:33:00.593Z,224
2017-01-08T08:33:41.105Z,228
2017-01-08T08:34:22.611Z,232
2017-01-08T08:35:03.392Z,260
2017-01-08T08:35:44.017Z,296
2017-01-08T08:36:24.536Z,352
2017-01-08T08:37:05.954Z,412
2017-01-08T08:37:46.429Z,448
2017-01-08T08:38:26.921Z,448
2017-01-08T08:39:07.554Z,444
2017-01-08T08:39:48.093Z,448
2017-01-08T08:40:28.903Z,448
2017-01-08T08:41:10.339Z,456
2017-01-08T08:41:51.673Z,452
2017-01-08T08:42:32.345Z,432
2017-01-08T08:43:14.133Z,432
2017-01-08T08:43:54.524Z,420
2017-01-08T08:44:35.743Z,396
2017-01-08T08:45:16.168Z,388
2017-01-08T08:45:56.705Z,412
2017-01-08T08:46:37.219Z,464
2017-01-08T08:47:18.462Z,524
2017-01-08T08:47:58.967Z,588
2017-01-08T08:48:39.540Z,624
2017-01-08T08:49:20.058Z,636
2017-01-08T08:50:00.603Z,640
2017-01-08T08:50:41.106Z,636
2017-01-08T08:51:21.718Z,616
2017-01-08T08:52:02.227Z,584
2017-01-08T08:52:42.750Z,572
2017-01-08T08:53:23.285Z,584
2017-01-08T08:54:03.820Z,668
2017-01-08T08:54:44.357Z,700
2017-01-08T08:55:24.931Z,764
2017-01-08T08:56:05.433Z,832
2017-01-08T08:56:45.886Z,856
2017-01-08T08:57:26.404Z,740
2017-01-08T08:58:06.975Z,672
2017-01-08T08:58:47.595Z,668
2017-01-08T08:59:28.018Z,676
2017-01-08T09:00:08.495Z,656
2017-01-08T09:00:49.083Z,620
2017-01-08T09:01:29.612Z,556
2017-01-08T09:02:10.169Z,484
2017-01-08T09:02:50.700Z,440
2017-01-08T09:03:32.790Z,476
2017-01-08T09:04:14.207Z,576
2017-01-08T09:04:54.673Z,688
2017-01-08T09:05:35.179Z,732
2017-01-08T09:06:16.364Z,796
2017-01-08T09:06:56.863Z,868
2017-01-08T09:07:37.337Z,984
2017-01-08T09:08:18.240Z,1068
2017-01-08T09:08:59.018Z,1020
2017-01-08T09:09:39.586Z,916
2017-01-08T09:10:20.102Z,768
2017-01-08T09:11:00.815Z,704
2017-01-08T09:11:41.350Z,648
2017-01-08T09:12:21.914Z,652
2017-01-08T09:13:02.454Z,648
2017-01-08T09:13:43.098Z,692
2017-01-08T09:14:23.549Z,772
2017-01-08T09:15:04.370Z,940
2017-01-08T09:15:45.084Z,1236
2017-01-08T09:16:25.642Z,1792
2017-01-08T09:17:06.189Z,1784
2017-01-08T09:17:46.681Z,1528
2017-01-08T09:18:27.159Z,1384
2017-01-08T09:19:07.725Z,1144
2017-01-08T09:19:48.295Z,1124
2017-01-08T09:20:28.752Z,960
2017-01-08T09:21:09.281Z,828
2017-01-08T09:21:49.759Z,768
2017-01-08T09:22:30.293Z,816
2017-01-08T09:23:10.823Z,872
2017-01-08T09:23:51.349Z,732
2017-01-08T09:24:31.870Z,716
2017-01-08T09:25:12.385Z,676
2017-01-08T09:25:52.884Z,636
2017-01-08T09:26:33.426Z,688
2017-01-08T09:27:13.956Z,888
2017-01-08T09:27:54.472Z,1008
2017-01-08T09:28:35.010Z,1068
2017-01-08T09:29:15.535Z,912
2017-01-08T09:29:56.059Z,780
2017-01-08T09:30:36.594Z,652
2017-01-08T09:31:17.127Z,780
2017-01-08T09:31:57.661Z,896
2017-01-08T09:32:38.181Z,664
2017-01-08T09:33:18.710Z,584
2017-01-08T09:34:01.165Z,648
2017-01-08T09:34:41.673Z,644
2017-01-08T09:35:22.202Z,584
2017-01-08T09:36:02.683Z,620
2017-01-08T09:36:43.179Z,720
2017-01-08T09:37:23.708Z,860
2017-01-08T09:38:04.227Z,980
2017-01-08T09:38:44.783Z,900
2017-01-08T09:39:25.930Z,848
2017-01-08T09:40:06.445Z,860
2017-01-08T09:40:46.974Z,780
2017-01-08T09:41:27.492Z,712
2017-01-08T09:42:08.247Z,716
2017-01-08T09:42:48.964Z,708
2017-01-08T09:43:29.727Z,728
2017-01-08T09:44:10.701Z,804
2017-01-08T09:44:51.749Z,764
2017-01-08T09:45:34.123Z,672
2017-01-08T09:46:14.588Z,596
2017-01-08T09:46:56.221Z,536
2017-01-08T09:47:36.632Z,520
2017-01-08T09:48:17.226Z,548
2017-01-08T09:48:57.887Z,600
2017-01-08T09:49:38.415Z,640
2017-01-08T09:50:19.294Z,632
2017-01-08T09:50:59.901Z,612
2017-01-08T09:51:40.461Z,600
2017-01-08T09:52:21.238Z,600
2017-01-08T09:53:01.789Z,596
2017-01-08T09:53:42.378Z,572
2017-01-08T09:54:23.048Z,556
2017-01-08T09:55:03.587Z,552
2017-01-08T09:55:44.457Z,540
2017-01-08T09:56:25.305Z,552
2017-01-08T09:57:07.304Z,584
2017-01-08T09:57:47.822Z,632
2017-01-08T09:58:31.533Z,636
2017-01-08T09:59:15.559Z,608
2017-01-08T09:59:56.209Z,572
2017-01-08T10:00:36.824Z,572
2017-01-08T10:01:19.680Z,552
2017-01-08T10:02:00.558Z,536
2017-01-08T10:02:41.362Z,500
2017-01-08T10:03:22.036Z,504
2017-01-08T10:04:02.968Z,524
2017-01-08T10:04:43.731Z,544
2017-01-08T10:05:25.277Z,528
2017-01-08T10:06:06.235Z,500
2017-01-08T10:06:46.833Z,488
2017-01-08T10:07:27.551Z,484
2017-01-08T10:08:08.346Z,480
2017-01-08T10:08:48.878Z,496
2017-01-08T10:09:29.619Z,484
2017-01-08T10:10:10.342Z,420
2017-01-08T10:10:50.943Z,380
2017-01-08T10:11:31.728Z,376
2017-01-08T10:12:13.623Z,392
2017-01-08T10:12:54.095Z,400
2017-01-08T10:13:34.659Z,408
2017-01-08T10:14:15.417Z,416
2017-01-08T10:14:56.354Z,428
2017-01-08T10:15:37.145Z,436
2017-01-08T10:16:17.952Z,436
2017-01-08T10:16:58.986Z,440
2017-01-08T10:17:39.809Z,440
2017-01-08T10:18:20.512Z,444
2017-01-08T10:19:01.692Z,460
2017-01-08T10:19:42.574Z,464
2017-01-08T10:20:23.277Z,480
2017-01-08T10:21:03.763Z,488
2017-01-08T10:21:44.785Z,476
2017-01-08T10:22:25.529Z,480
2017-01-08T10:23:06.418Z,488
2017-01-08T10:23:46.930Z,492
2017-01-08T10:24:27.554Z,484
2017-01-08T10:25:08.078Z,496
2017-01-08T10:25:48.756Z,528
2017-01-08T10:26:29.258Z,556
2017-01-08T10:27:09.994Z,548
2017-01-08T10:27:50.518Z,572
2017-01-08T10:28:31.112Z,572
2017-01-08T10:29:12.163Z,564
2017-01-08T10:29:52.850Z,548
2017-01-08T10:30:33.450Z,536
2017-01-08T10:31:14.369Z,552
2017-01-08T10:31:56.013Z,624
2017-01-08T10:32:36.565Z,708
2017-01-08T10:33:17.233Z,736
2017-01-08T10:33:58.377Z,740
2017-01-08T10:34:38.481Z,716
2017-01-08T10:35:19.631Z,692
2017-01-08T10:35:59.982Z,668
2017-01-08T10:36:40.382Z,644
2017-01-08T10:37:20.893Z,600
2017-01-08T10:38:01.855Z,540
2017-01-08T10:38:42.424Z,524
2017-01-08T10:39:22.972Z,524
2017-01-08T10:40:03.464Z,524
2017-01-08T10:40:44.141Z,540
2017-01-08T10:41:24.919Z,540
2017-01-08T10:42:05.775Z,528
2017-01-08T10:42:47.414Z,504
2017-01-08T10:43:27.943Z,512
2017-01-08T10:44:08.515Z,536
2017-01-08T10:44:49.147Z,552